sensor_id;sensor_type;location;lat;lon;timestamp;P1;durP1;ratioP1;P2;durP2;ratioP2
5981;SDS011;3018;48.730;9.336;2022-09-01T00:02:23;10.35;;;8.52;;
5981;SDS011;3018;48.730;9.336;2022-09-01T00:04:51;15.10;;;8.88;;
5981;SDS011;3018;48.730;9.336;2022-09-01T00:07:19;9.85;;;8.85;;
5981;SDS011;3018;48.730;9.336;2022-09-01T00:09:46;9.80;;;8.63;;
5981;SDS011;3018;48.730;9.336;2022-09-01T00:12:12;12.60;;;8.68;;
5981;SDS011;3018;48.730;9.336;2022-09-01T00:14:39;11.60;;;9.35;;
5981;SDS011;3018;48.730;9.336;2022-09-01T00:17:08;13.57;;;9.40;;
5981;SDS011;3018;48.730;9.336;2022-09-01T00:19:36;12.13;;;8.57;;
5981;SDS011;3018;48.730;9.336;2022-09-01T00:22:03;10.63;;;8.60;;
5981;SDS011;3018;48.730;9.336;2022-09-01T00:24:30;9.43;;;8.73;;
5981;SDS011;3018;48.730;9.336;2022-09-01T00:26:56;10.52;;;9.48;;
5981;SDS011;3018;48.730;9.336;2022-09-01T00:29:23;10.48;;;9.10;;
5981;SDS011;3018;48.730;9.336;2022-09-01T00:31:50;10.02;;;9.07;;
5981;SDS011;3018;48.730;9.336;2022-09-01T00:34:16;11.23;;;9.00;;
5981;SDS011;3018;48.730;9.336;2022-09-01T00:36:44;12.35;;;8.60;;
5981;SDS011;3018;48.730;9.336;2022-09-01T00:39:12;9.45;;;8.65;;
5981;SDS011;3018;48.730;9.336;2022-09-01T00:41:39;14.02;;;9.30;;
5981;SDS011;3018;48.730;9.336;2022-09-01T00:44:07;9.25;;;8.07;;
5981;SDS011;3018;48.730;9.336;2022-09-01T00:46:36;9.77;;;8.88;;
5981;SDS011;3018;48.730;9.336;2022-09-01T00:49:05;12.70;;;9.50;;
5981;SDS011;3018;48.730;9.336;2022-09-01T00:51:33;11.23;;;8.50;;
5981;SDS011;3018;48.730;9.336;2022-09-01T00:54:03;10.30;;;9.30;;
5981;SDS011;3018;48.730;9.336;2022-09-01T00:56:30;15.32;;;8.95;;
5981;SDS011;3018;48.730;9.336;2022-09-01T00:58:57;9.95;;;8.90;;
5981;SDS011;3018;48.730;9.336;2022-09-01T01:01:24;10.10;;;9.23;;
5981;SDS011;3018;48.730;9.336;2022-09-01T01:03:51;9.95;;;9.10;;
5981;SDS011;3018;48.730;9.336;2022-09-01T01:06:17;9.30;;;8.40;;
5981;SDS011;3018;48.730;9.336;2022-09-01T01:08:48;9.65;;;8.90;;
5981;SDS011;3018;48.730;9.336;2022-09-01T01:11:24;10.10;;;9.20;;
5981;SDS011;3018;48.730;9.336;2022-09-01T01:13:55;12.13;;;9.25;;
5981;SDS011;3018;48.730;9.336;2022-09-01T01:16:23;11.00;;;9.52;;
5981;SDS011;3018;48.730;9.336;2022-09-01T01:18:50;11.43;;;10.23;;
5981;SDS011;3018;48.730;9.336;2022-09-01T01:21:19;11.95;;;10.02;;
5981;SDS011;3018;48.730;9.336;2022-09-01T01:24:05;11.52;;;9.55;;
5981;SDS011;3018;48.730;9.336;2022-09-01T01:26:36;10.43;;;9.52;;
5981;SDS011;3018;48.730;9.336;2022-09-01T01:29:02;10.48;;;9.20;;
5981;SDS011;3018;48.730;9.336;2022-09-01T01:31:28;10.52;;;9.52;;
5981;SDS011;3018;48.730;9.336;2022-09-01T01:33:56;11.73;;;10.52;;
5981;SDS011;3018;48.730;9.336;2022-09-01T01:36:25;11.82;;;9.20;;
5981;SDS011;3018;48.730;9.336;2022-09-01T01:38:57;9.68;;;8.77;;
5981;SDS011;3018;48.730;9.336;2022-09-01T01:41:26;9.35;;;8.65;;
5981;SDS011;3018;48.730;9.336;2022-09-01T01:43:55;10.52;;;9.45;;
5981;SDS011;3018;48.730;9.336;2022-09-01T01:46:22;14.23;;;9.90;;
5981;SDS011;3018;48.730;9.336;2022-09-01T01:48:50;10.93;;;9.88;;
5981;SDS011;3018;48.730;9.336;2022-09-01T01:51:18;11.15;;;10.02;;
5981;SDS011;3018;48.730;9.336;2022-09-01T01:53:45;10.65;;;9.85;;
5981;SDS011;3018;48.730;9.336;2022-09-01T01:56:11;10.38;;;9.18;;
5981;SDS011;3018;48.730;9.336;2022-09-01T01:58:38;11.10;;;9.13;;
5981;SDS011;3018;48.730;9.336;2022-09-01T02:01:06;10.90;;;9.88;;
5981;SDS011;3018;48.730;9.336;2022-09-01T02:03:34;15.77;;;9.25;;
5981;SDS011;3018;48.730;9.336;2022-09-01T02:06:03;13.40;;;9.45;;
5981;SDS011;3018;48.730;9.336;2022-09-01T02:08:32;11.60;;;8.65;;
5981;SDS011;3018;48.730;9.336;2022-09-01T02:11:00;13.15;;;8.75;;
5981;SDS011;3018;48.730;9.336;2022-09-01T02:13:26;12.73;;;9.98;;
5981;SDS011;3018;48.730;9.336;2022-09-01T02:15:55;13.05;;;9.65;;
5981;SDS011;3018;48.730;9.336;2022-09-01T02:18:23;11.30;;;9.80;;
5981;SDS011;3018;48.730;9.336;2022-09-01T02:20:52;11.25;;;10.00;;
5981;SDS011;3018;48.730;9.336;2022-09-01T02:23:19;13.20;;;10.15;;
5981;SDS011;3018;48.730;9.336;2022-09-01T02:25:47;12.68;;;9.52;;
5981;SDS011;3018;48.730;9.336;2022-09-01T02:28:15;11.48;;;10.38;;
5981;SDS011;3018;48.730;9.336;2022-09-01T02:30:42;13.00;;;10.63;;
5981;SDS011;3018;48.730;9.336;2022-09-01T02:33:09;16.10;;;9.30;;
5981;SDS011;3018;48.730;9.336;2022-09-01T02:35:37;12.57;;;9.88;;
5981;SDS011;3018;48.730;9.336;2022-09-01T02:38:03;11.60;;;9.95;;
5981;SDS011;3018;48.730;9.336;2022-09-01T02:40:30;15.85;;;9.65;;
5981;SDS011;3018;48.730;9.336;2022-09-01T02:42:57;12.32;;;9.88;;
5981;SDS011;3018;48.730;9.336;2022-09-01T02:45:24;11.35;;;9.90;;
5981;SDS011;3018;48.730;9.336;2022-09-01T02:47:50;11.57;;;10.10;;
5981;SDS011;3018;48.730;9.336;2022-09-01T02:50:18;10.57;;;9.55;;
5981;SDS011;3018;48.730;9.336;2022-09-01T02:52:45;10.82;;;9.73;;
5981;SDS011;3018;48.730;9.336;2022-09-01T02:55:13;10.73;;;9.73;;
5981;SDS011;3018;48.730;9.336;2022-09-01T02:57:46;11.07;;;9.73;;
5981;SDS011;3018;48.730;9.336;2022-09-01T03:00:13;16.90;;;9.90;;
5981;SDS011;3018;48.730;9.336;2022-09-01T03:02:47;10.80;;;9.75;;
5981;SDS011;3018;48.730;9.336;2022-09-01T03:05:16;11.07;;;9.98;;
5981;SDS011;3018;48.730;9.336;2022-09-01T03:07:50;12.25;;;9.52;;
5981;SDS011;3018;48.730;9.336;2022-09-01T03:10:20;10.43;;;9.52;;
5981;SDS011;3018;48.730;9.336;2022-09-01T03:12:48;10.80;;;9.77;;
5981;SDS011;3018;48.730;9.336;2022-09-01T03:15:14;11.30;;;9.95;;
5981;SDS011;3018;48.730;9.336;2022-09-01T03:17:40;10.93;;;9.38;;
5981;SDS011;3018;48.730;9.336;2022-09-01T03:20:07;12.18;;;10.45;;
5981;SDS011;3018;48.730;9.336;2022-09-01T03:22:33;12.20;;;11.00;;
5981;SDS011;3018;48.730;9.336;2022-09-01T03:25:01;11.98;;;10.48;;
5981;SDS011;3018;48.730;9.336;2022-09-01T03:27:28;13.68;;;10.88;;
5981;SDS011;3018;48.730;9.336;2022-09-01T03:29:54;15.07;;;11.48;;
5981;SDS011;3018;48.730;9.336;2022-09-01T03:32:21;12.73;;;11.43;;
5981;SDS011;3018;48.730;9.336;2022-09-01T03:34:47;15.55;;;12.13;;
5981;SDS011;3018;48.730;9.336;2022-09-01T03:37:15;12.95;;;11.65;;
5981;SDS011;3018;48.730;9.336;2022-09-01T03:39:41;14.60;;;11.82;;
5981;SDS011;3018;48.730;9.336;2022-09-01T03:42:09;13.00;;;11.68;;
5981;SDS011;3018;48.730;9.336;2022-09-01T03:44:36;13.02;;;11.05;;
5981;SDS011;3018;48.730;9.336;2022-09-01T03:47:04;12.82;;;11.35;;
5981;SDS011;3018;48.730;9.336;2022-09-01T03:49:34;17.27;;;12.13;;
5981;SDS011;3018;48.730;9.336;2022-09-01T03:52:01;14.00;;;11.45;;
5981;SDS011;3018;48.730;9.336;2022-09-01T03:54:27;12.45;;;11.25;;
5981;SDS011;3018;48.730;9.336;2022-09-01T03:56:54;11.60;;;10.60;;
5981;SDS011;3018;48.730;9.336;2022-09-01T03:59:25;13.30;;;11.90;;
5981;SDS011;3018;48.730;9.336;2022-09-01T04:01:53;15.52;;;11.82;;
5981;SDS011;3018;48.730;9.336;2022-09-01T04:04:22;13.50;;;11.45;;
5981;SDS011;3018;48.730;9.336;2022-09-01T04:06:49;13.70;;;11.27;;
5981;SDS011;3018;48.730;9.336;2022-09-01T04:09:16;14.80;;;11.23;;
5981;SDS011;3018;48.730;9.336;2022-09-01T04:11:42;15.15;;;12.00;;
5981;SDS011;3018;48.730;9.336;2022-09-01T04:14:10;13.70;;;12.38;;
5981;SDS011;3018;48.730;9.336;2022-09-01T04:16:38;13.75;;;11.65;;
5981;SDS011;3018;48.730;9.336;2022-09-01T04:19:22;12.88;;;11.70;;
5981;SDS011;3018;48.730;9.336;2022-09-01T04:21:51;13.23;;;11.98;;
5981;SDS011;3018;48.730;9.336;2022-09-01T04:24:17;14.73;;;11.38;;
5981;SDS011;3018;48.730;9.336;2022-09-01T04:26:44;14.38;;;12.93;;
5981;SDS011;3018;48.730;9.336;2022-09-01T04:29:12;13.40;;;12.10;;
5981;SDS011;3018;48.730;9.336;2022-09-01T04:31:40;13.48;;;12.07;;
5981;SDS011;3018;48.730;9.336;2022-09-01T04:34:07;13.90;;;12.45;;
5981;SDS011;3018;48.730;9.336;2022-09-01T04:36:35;14.60;;;12.43;;
5981;SDS011;3018;48.730;9.336;2022-09-01T04:39:05;20.80;;;13.30;;
5981;SDS011;3018;48.730;9.336;2022-09-01T04:41:34;13.75;;;12.45;;
5981;SDS011;3018;48.730;9.336;2022-09-01T04:44:01;13.25;;;11.95;;
5981;SDS011;3018;48.730;9.336;2022-09-01T04:46:29;17.63;;;12.80;;
5981;SDS011;3018;48.730;9.336;2022-09-01T04:48:58;14.13;;;12.75;;
5981;SDS011;3018;48.730;9.336;2022-09-01T04:51:25;14.20;;;12.85;;
5981;SDS011;3018;48.730;9.336;2022-09-01T04:53:52;16.67;;;12.88;;
5981;SDS011;3018;48.730;9.336;2022-09-01T04:56:19;14.50;;;12.25;;
5981;SDS011;3018;48.730;9.336;2022-09-01T04:58:47;15.32;;;13.82;;
5981;SDS011;3018;48.730;9.336;2022-09-01T05:01:13;15.30;;;13.70;;
5981;SDS011;3018;48.730;9.336;2022-09-01T05:03:40;15.43;;;13.35;;
5981;SDS011;3018;48.730;9.336;2022-09-01T05:06:12;16.33;;;14.68;;
5981;SDS011;3018;48.730;9.336;2022-09-01T05:08:39;15.20;;;13.80;;
5981;SDS011;3018;48.730;9.336;2022-09-01T05:11:06;15.43;;;13.93;;
5981;SDS011;3018;48.730;9.336;2022-09-01T05:13:33;14.55;;;13.13;;
5981;SDS011;3018;48.730;9.336;2022-09-01T05:16:04;21.75;;;13.93;;
5981;SDS011;3018;48.730;9.336;2022-09-01T05:18:31;15.35;;;13.75;;
5981;SDS011;3018;48.730;9.336;2022-09-01T05:20:58;15.48;;;13.27;;
5981;SDS011;3018;48.730;9.336;2022-09-01T05:23:35;17.08;;;14.18;;
5981;SDS011;3018;48.730;9.336;2022-09-01T05:26:01;14.57;;;13.18;;
5981;SDS011;3018;48.730;9.336;2022-09-01T05:28:31;16.75;;;14.55;;
5981;SDS011;3018;48.730;9.336;2022-09-01T05:30:59;16.88;;;15.32;;
5981;SDS011;3018;48.730;9.336;2022-09-01T05:33:26;15.80;;;13.98;;
5981;SDS011;3018;48.730;9.336;2022-09-01T05:35:53;19.27;;;14.80;;
5981;SDS011;3018;48.730;9.336;2022-09-01T05:38:19;16.95;;;15.35;;
5981;SDS011;3018;48.730;9.336;2022-09-01T05:40:55;16.58;;;14.82;;
5981;SDS011;3018;48.730;9.336;2022-09-01T05:43:22;21.13;;;17.13;;
5981;SDS011;3018;48.730;9.336;2022-09-01T05:45:51;26.13;;;17.20;;
5981;SDS011;3018;48.730;9.336;2022-09-01T05:48:18;20.98;;;16.77;;
5981;SDS011;3018;48.730;9.336;2022-09-01T05:50:45;23.42;;;17.10;;
5981;SDS011;3018;48.730;9.336;2022-09-01T05:53:14;20.25;;;17.33;;
5981;SDS011;3018;48.730;9.336;2022-09-01T05:55:42;21.38;;;19.08;;
5981;SDS011;3018;48.730;9.336;2022-09-01T05:58:10;22.00;;;15.80;;
5981;SDS011;3018;48.730;9.336;2022-09-01T06:00:38;18.90;;;16.65;;
5981;SDS011;3018;48.730;9.336;2022-09-01T06:03:04;29.63;;;21.60;;
5981;SDS011;3018;48.730;9.336;2022-09-01T06:05:32;25.63;;;19.60;;
5981;SDS011;3018;48.730;9.336;2022-09-01T06:07:59;26.40;;;20.90;;
5981;SDS011;3018;48.730;9.336;2022-09-01T06:10:26;26.90;;;21.10;;
5981;SDS011;3018;48.730;9.336;2022-09-01T06:12:53;25.02;;;21.05;;
5981;SDS011;3018;48.730;9.336;2022-09-01T06:15:21;24.23;;;21.30;;
5981;SDS011;3018;48.730;9.336;2022-09-01T06:17:48;22.52;;;20.23;;
5981;SDS011;3018;48.730;9.336;2022-09-01T06:20:15;23.85;;;19.60;;
5981;SDS011;3018;48.730;9.336;2022-09-01T06:22:42;24.00;;;19.52;;
5981;SDS011;3018;48.730;9.336;2022-09-01T06:25:09;21.25;;;19.02;;
5981;SDS011;3018;48.730;9.336;2022-09-01T06:27:35;26.33;;;21.70;;
5981;SDS011;3018;48.730;9.336;2022-09-01T06:30:08;22.65;;;20.05;;
5981;SDS011;3018;48.730;9.336;2022-09-01T06:32:40;25.25;;;20.50;;
5981;SDS011;3018;48.730;9.336;2022-09-01T06:35:08;28.85;;;22.30;;
5981;SDS011;3018;48.730;9.336;2022-09-01T06:37:35;24.73;;;20.40;;
5981;SDS011;3018;48.730;9.336;2022-09-01T06:40:02;24.33;;;21.08;;
5981;SDS011;3018;48.730;9.336;2022-09-01T06:42:28;24.38;;;20.48;;
5981;SDS011;3018;48.730;9.336;2022-09-01T06:44:59;26.65;;;21.35;;
5981;SDS011;3018;48.730;9.336;2022-09-01T06:47:25;24.45;;;20.90;;
5981;SDS011;3018;48.730;9.336;2022-09-01T06:49:53;23.45;;;20.88;;
5981;SDS011;3018;48.730;9.336;2022-09-01T06:52:23;25.75;;;19.30;;
5981;SDS011;3018;48.730;9.336;2022-09-01T06:54:49;24.40;;;20.13;;
5981;SDS011;3018;48.730;9.336;2022-09-01T06:57:18;22.23;;;18.63;;
5981;SDS011;3018;48.730;9.336;2022-09-01T06:59:45;22.52;;;18.98;;
5981;SDS011;3018;48.730;9.336;2022-09-01T07:02:12;20.48;;;17.73;;
5981;SDS011;3018;48.730;9.336;2022-09-01T07:04:40;20.55;;;17.60;;
5981;SDS011;3018;48.730;9.336;2022-09-01T07:07:09;20.00;;;17.23;;
5981;SDS011;3018;48.730;9.336;2022-09-01T07:09:36;17.35;;;15.50;;
5981;SDS011;3018;48.730;9.336;2022-09-01T07:12:02;18.23;;;15.98;;
5981;SDS011;3018;48.730;9.336;2022-09-01T07:14:28;19.73;;;16.02;;
5981;SDS011;3018;48.730;9.336;2022-09-01T07:16:55;18.70;;;15.70;;
5981;SDS011;3018;48.730;9.336;2022-09-01T07:19:22;16.65;;;14.50;;
5981;SDS011;3018;48.730;9.336;2022-09-01T07:21:50;17.08;;;14.90;;
5981;SDS011;3018;48.730;9.336;2022-09-01T07:24:18;16.10;;;14.43;;
5981;SDS011;3018;48.730;9.336;2022-09-01T07:26:44;15.90;;;14.23;;
5981;SDS011;3018;48.730;9.336;2022-09-01T07:29:17;16.65;;;14.90;;
5981;SDS011;3018;48.730;9.336;2022-09-01T07:31:45;17.55;;;15.10;;
5981;SDS011;3018;48.730;9.336;2022-09-01T07:34:12;15.50;;;14.00;;
5981;SDS011;3018;48.730;9.336;2022-09-01T07:36:38;16.00;;;14.30;;
5981;SDS011;3018;48.730;9.336;2022-09-01T07:39:07;16.08;;;14.45;;
5981;SDS011;3018;48.730;9.336;2022-09-01T07:41:35;16.50;;;14.50;;
5981;SDS011;3018;48.730;9.336;2022-09-01T07:44:02;15.00;;;13.43;;
5981;SDS011;3018;48.730;9.336;2022-09-01T07:46:30;17.25;;;13.25;;
5981;SDS011;3018;48.730;9.336;2022-09-01T07:48:56;14.73;;;12.95;;
5981;SDS011;3018;48.730;9.336;2022-09-01T07:51:24;14.35;;;13.05;;
5981;SDS011;3018;48.730;9.336;2022-09-01T07:53:50;14.75;;;13.20;;
5981;SDS011;3018;48.730;9.336;2022-09-01T07:56:17;12.82;;;11.52;;
5981;SDS011;3018;48.730;9.336;2022-09-01T07:58:46;13.70;;;12.15;;
5981;SDS011;3018;48.730;9.336;2022-09-01T08:01:14;10.52;;;9.63;;
5981;SDS011;3018;48.730;9.336;2022-09-01T08:03:42;11.40;;;10.20;;
5981;SDS011;3018;48.730;9.336;2022-09-01T08:06:10;11.48;;;10.25;;
5981;SDS011;3018;48.730;9.336;2022-09-01T08:08:38;13.15;;;11.48;;
5981;SDS011;3018;48.730;9.336;2022-09-01T08:11:05;11.85;;;10.65;;
5981;SDS011;3018;48.730;9.336;2022-09-01T08:13:31;13.00;;;11.57;;
5981;SDS011;3018;48.730;9.336;2022-09-01T08:15:59;11.52;;;10.40;;
5981;SDS011;3018;48.730;9.336;2022-09-01T08:18:27;10.38;;;9.35;;
5981;SDS011;3018;48.730;9.336;2022-09-01T08:20:54;10.10;;;9.13;;
5981;SDS011;3018;48.730;9.336;2022-09-01T08:23:20;8.82;;;7.90;;
5981;SDS011;3018;48.730;9.336;2022-09-01T08:25:50;8.60;;;7.80;;
5981;SDS011;3018;48.730;9.336;2022-09-01T08:28:17;9.52;;;8.60;;
5981;SDS011;3018;48.730;9.336;2022-09-01T08:30:43;8.55;;;7.65;;
5981;SDS011;3018;48.730;9.336;2022-09-01T08:33:11;7.75;;;7.22;;
5981;SDS011;3018;48.730;9.336;2022-09-01T08:35:38;7.75;;;7.15;;
5981;SDS011;3018;48.730;9.336;2022-09-01T08:38:05;7.70;;;7.00;;
5981;SDS011;3018;48.730;9.336;2022-09-01T08:40:31;7.82;;;7.22;;
5981;SDS011;3018;48.730;9.336;2022-09-01T08:43:00;8.45;;;7.75;;
5981;SDS011;3018;48.730;9.336;2022-09-01T08:45:32;7.47;;;6.82;;
5981;SDS011;3018;48.730;9.336;2022-09-01T08:48:03;7.20;;;6.57;;
5981;SDS011;3018;48.730;9.336;2022-09-01T08:50:32;7.65;;;6.85;;
5981;SDS011;3018;48.730;9.336;2022-09-01T08:52:59;7.28;;;6.57;;
5981;SDS011;3018;48.730;9.336;2022-09-01T08:55:30;6.65;;;6.20;;
5981;SDS011;3018;48.730;9.336;2022-09-01T08:57:59;6.70;;;6.10;;
5981;SDS011;3018;48.730;9.336;2022-09-01T09:00:30;8.02;;;7.32;;
5981;SDS011;3018;48.730;9.336;2022-09-01T09:03:03;9.95;;;6.97;;
5981;SDS011;3018;48.730;9.336;2022-09-01T09:05:34;7.20;;;6.68;;
5981;SDS011;3018;48.730;9.336;2022-09-01T09:08:21;7.25;;;5.97;;
5981;SDS011;3018;48.730;9.336;2022-09-01T09:10:51;8.07;;;7.38;;
5981;SDS011;3018;48.730;9.336;2022-09-01T09:13:20;6.93;;;6.20;;
5981;SDS011;3018;48.730;9.336;2022-09-01T09:15:50;6.40;;;5.90;;
5981;SDS011;3018;48.730;9.336;2022-09-01T09:18:18;6.97;;;6.38;;
5981;SDS011;3018;48.730;9.336;2022-09-01T09:20:49;5.10;;;4.80;;
5981;SDS011;3018;48.730;9.336;2022-09-01T09:23:23;5.55;;;5.18;;
5981;SDS011;3018;48.730;9.336;2022-09-01T09:25:50;4.65;;;4.45;;
5981;SDS011;3018;48.730;9.336;2022-09-01T09:28:16;4.93;;;4.63;;
5981;SDS011;3018;48.730;9.336;2022-09-01T09:30:43;3.78;;;3.58;;
5981;SDS011;3018;48.730;9.336;2022-09-01T09:33:09;5.47;;;3.97;;
5981;SDS011;3018;48.730;9.336;2022-09-01T09:35:57;5.25;;;4.68;;
5981;SDS011;3018;48.730;9.336;2022-09-01T09:38:40;4.10;;;3.90;;
5981;SDS011;3018;48.730;9.336;2022-09-01T09:41:07;3.72;;;3.60;;
5981;SDS011;3018;48.730;9.336;2022-09-01T09:43:34;3.72;;;3.63;;
5981;SDS011;3018;48.730;9.336;2022-09-01T09:46:22;3.72;;;3.50;;
5981;SDS011;3018;48.730;9.336;2022-09-01T09:48:49;4.00;;;3.80;;
5981;SDS011;3018;48.730;9.336;2022-09-01T09:51:32;3.95;;;3.75;;
5981;SDS011;3018;48.730;9.336;2022-09-01T09:54:09;4.65;;;4.10;;
5981;SDS011;3018;48.730;9.336;2022-09-01T09:56:35;4.40;;;4.00;;
5981;SDS011;3018;48.730;9.336;2022-09-01T09:59:01;3.53;;;3.33;;
5981;SDS011;3018;48.730;9.336;2022-09-01T10:01:41;4.53;;;4.13;;
5981;SDS011;3018;48.730;9.336;2022-09-01T10:04:07;4.07;;;3.65;;
5981;SDS011;3018;48.730;9.336;2022-09-01T10:06:36;4.03;;;3.70;;
5981;SDS011;3018;48.730;9.336;2022-09-01T10:09:03;3.65;;;3.50;;
5981;SDS011;3018;48.730;9.336;2022-09-01T10:11:32;4.30;;;3.50;;
5981;SDS011;3018;48.730;9.336;2022-09-01T10:14:03;7.57;;;6.80;;
5981;SDS011;3018;48.730;9.336;2022-09-01T10:16:30;4.85;;;3.63;;
5981;SDS011;3018;48.730;9.336;2022-09-01T10:18:58;3.92;;;3.72;;
5981;SDS011;3018;48.730;9.336;2022-09-01T10:21:27;7.18;;;6.57;;
5981;SDS011;3018;48.730;9.336;2022-09-01T10:23:56;5.25;;;4.13;;
5981;SDS011;3018;48.730;9.336;2022-09-01T10:26:23;3.50;;;3.30;;
5981;SDS011;3018;48.730;9.336;2022-09-01T10:28:53;3.22;;;3.03;;
5981;SDS011;3018;48.730;9.336;2022-09-01T10:31:20;5.30;;;4.88;;
5981;SDS011;3018;48.730;9.336;2022-09-01T10:33:47;3.42;;;3.13;;
5981;SDS011;3018;48.730;9.336;2022-09-01T10:36:14;3.10;;;2.97;;
5981;SDS011;3018;48.730;9.336;2022-09-01T10:38:41;3.83;;;3.50;;
5981;SDS011;3018;48.730;9.336;2022-09-01T10:41:09;3.20;;;3.00;;
5981;SDS011;3018;48.730;9.336;2022-09-01T10:44:06;4.82;;;3.00;;
5981;SDS011;3018;48.730;9.336;2022-09-01T10:49:20;3.80;;;3.50;;
5981;SDS011;3018;48.730;9.336;2022-09-01T10:51:47;3.10;;;2.80;;
5981;SDS011;3018;48.730;9.336;2022-09-01T10:57:07;2.85;;;2.75;;
5981;SDS011;3018;48.730;9.336;2022-09-01T10:59:35;3.70;;;3.50;;
5981;SDS011;3018;48.730;9.336;2022-09-01T11:02:04;3.67;;;3.45;;
5981;SDS011;3018;48.730;9.336;2022-09-01T11:07:30;2.75;;;2.63;;
5981;SDS011;3018;48.730;9.336;2022-09-01T11:10:10;5.15;;;4.75;;
5981;SDS011;3018;48.730;9.336;2022-09-01T11:12:42;3.47;;;3.38;;
5981;SDS011;3018;48.730;9.336;2022-09-01T11:18:07;3.40;;;3.20;;
5981;SDS011;3018;48.730;9.336;2022-09-01T11:20:35;3.28;;;3.13;;
5981;SDS011;3018;48.730;9.336;2022-09-01T11:23:03;3.40;;;3.20;;
5981;SDS011;3018;48.730;9.336;2022-09-01T11:25:32;3.00;;;2.90;;
5981;SDS011;3018;48.730;9.336;2022-09-01T11:28:04;5.75;;;2.92;;
5981;SDS011;3018;48.730;9.336;2022-09-01T11:30:32;2.97;;;2.88;;
5981;SDS011;3018;48.730;9.336;2022-09-01T11:33:01;3.10;;;2.92;;
5981;SDS011;3018;48.730;9.336;2022-09-01T11:35:30;2.72;;;2.63;;
5981;SDS011;3018;48.730;9.336;2022-09-01T11:38:01;3.30;;;3.10;;
5981;SDS011;3018;48.730;9.336;2022-09-01T11:40:28;2.92;;;2.80;;
5981;SDS011;3018;48.730;9.336;2022-09-01T11:42:55;2.70;;;2.60;;
5981;SDS011;3018;48.730;9.336;2022-09-01T11:45:24;2.50;;;2.45;;
5981;SDS011;3018;48.730;9.336;2022-09-01T11:47:53;3.15;;;2.83;;
5981;SDS011;3018;48.730;9.336;2022-09-01T11:50:21;3.95;;;2.83;;
5981;SDS011;3018;48.730;9.336;2022-09-01T11:52:52;2.75;;;2.53;;
5981;SDS011;3018;48.730;9.336;2022-09-01T11:55:27;2.92;;;2.55;;
5981;SDS011;3018;48.730;9.336;2022-09-01T11:57:53;3.10;;;2.95;;
5981;SDS011;3018;48.730;9.336;2022-09-01T12:00:25;3.00;;;2.80;;
5981;SDS011;3018;48.730;9.336;2022-09-01T12:02:52;3.05;;;2.85;;
5981;SDS011;3018;48.730;9.336;2022-09-01T12:05:24;2.40;;;2.30;;
5981;SDS011;3018;48.730;9.336;2022-09-01T12:07:51;2.80;;;2.47;;
5981;SDS011;3018;48.730;9.336;2022-09-01T12:10:18;2.75;;;2.65;;
5981;SDS011;3018;48.730;9.336;2022-09-01T12:12:45;2.65;;;2.45;;
5981;SDS011;3018;48.730;9.336;2022-09-01T12:15:16;2.65;;;2.50;;
5981;SDS011;3018;48.730;9.336;2022-09-01T12:17:44;2.55;;;2.40;;
5981;SDS011;3018;48.730;9.336;2022-09-01T12:20:21;2.88;;;2.78;;
5981;SDS011;3018;48.730;9.336;2022-09-01T12:22:47;3.60;;;3.03;;
5981;SDS011;3018;48.730;9.336;2022-09-01T12:25:17;2.88;;;2.78;;
5981;SDS011;3018;48.730;9.336;2022-09-01T12:27:44;2.78;;;2.58;;
5981;SDS011;3018;48.730;9.336;2022-09-01T12:30:10;2.85;;;2.75;;
5981;SDS011;3018;48.730;9.336;2022-09-01T12:32:37;3.13;;;2.92;;
5981;SDS011;3018;48.730;9.336;2022-09-01T12:35:11;2.88;;;2.78;;
5981;SDS011;3018;48.730;9.336;2022-09-01T12:37:39;2.70;;;2.60;;
5981;SDS011;3018;48.730;9.336;2022-09-01T12:40:05;2.67;;;2.30;;
5981;SDS011;3018;48.730;9.336;2022-09-01T12:42:48;2.67;;;2.58;;
5981;SDS011;3018;48.730;9.336;2022-09-01T12:45:15;2.55;;;2.45;;
5981;SDS011;3018;48.730;9.336;2022-09-01T12:48:00;4.97;;;2.60;;
5981;SDS011;3018;48.730;9.336;2022-09-01T12:50:35;2.33;;;2.20;;
5981;SDS011;3018;48.730;9.336;2022-09-01T12:53:12;3.47;;;2.30;;
5981;SDS011;3018;48.730;9.336;2022-09-01T12:55:39;2.22;;;2.22;;
5981;SDS011;3018;48.730;9.336;2022-09-01T12:58:06;2.78;;;2.60;;
5981;SDS011;3018;48.730;9.336;2022-09-01T13:00:33;3.05;;;2.22;;
5981;SDS011;3018;48.730;9.336;2022-09-01T13:03:05;2.55;;;2.45;;
5981;SDS011;3018;48.730;9.336;2022-09-01T13:05:32;2.42;;;2.33;;
5981;SDS011;3018;48.730;9.336;2022-09-01T13:08:00;2.67;;;2.58;;
5981;SDS011;3018;48.730;9.336;2022-09-01T13:10:29;2.20;;;2.10;;
5981;SDS011;3018;48.730;9.336;2022-09-01T13:12:56;2.30;;;2.30;;
5981;SDS011;3018;48.730;9.336;2022-09-01T13:15:23;2.50;;;2.40;;
5981;SDS011;3018;48.730;9.336;2022-09-01T13:17:49;2.30;;;2.20;;
5981;SDS011;3018;48.730;9.336;2022-09-01T13:20:16;3.08;;;2.70;;
5981;SDS011;3018;48.730;9.336;2022-09-01T13:22:42;2.95;;;2.63;;
5981;SDS011;3018;48.730;9.336;2022-09-01T13:25:10;2.95;;;2.60;;
5981;SDS011;3018;48.730;9.336;2022-09-01T13:27:37;2.58;;;2.08;;
5981;SDS011;3018;48.730;9.336;2022-09-01T13:30:08;2.58;;;2.40;;
5981;SDS011;3018;48.730;9.336;2022-09-01T13:32:35;3.40;;;2.10;;
5981;SDS011;3018;48.730;9.336;2022-09-01T13:35:02;3.03;;;2.17;;
5981;SDS011;3018;48.730;9.336;2022-09-01T13:37:28;2.85;;;2.22;;
5981;SDS011;3018;48.730;9.336;2022-09-01T13:39:54;2.60;;;2.50;;
5981;SDS011;3018;48.730;9.336;2022-09-01T13:42:22;2.42;;;2.33;;
5981;SDS011;3018;48.730;9.336;2022-09-01T13:44:48;3.00;;;2.72;;
5981;SDS011;3018;48.730;9.336;2022-09-01T13:47:15;2.30;;;2.20;;
5981;SDS011;3018;48.730;9.336;2022-09-01T13:49:41;2.30;;;2.30;;
5981;SDS011;3018;48.730;9.336;2022-09-01T13:52:07;2.42;;;2.33;;
5981;SDS011;3018;48.730;9.336;2022-09-01T13:54:34;2.95;;;2.85;;
5981;SDS011;3018;48.730;9.336;2022-09-01T13:57:00;4.22;;;2.50;;
5981;SDS011;3018;48.730;9.336;2022-09-01T13:59:28;3.38;;;2.33;;
5981;SDS011;3018;48.730;9.336;2022-09-01T14:01:54;2.40;;;2.30;;
5981;SDS011;3018;48.730;9.336;2022-09-01T14:04:21;2.42;;;2.28;;
5981;SDS011;3018;48.730;9.336;2022-09-01T14:06:47;2.67;;;2.20;;
5981;SDS011;3018;48.730;9.336;2022-09-01T14:09:14;2.08;;;2.00;;
5981;SDS011;3018;48.730;9.336;2022-09-01T14:11:40;2.58;;;2.28;;
5981;SDS011;3018;48.730;9.336;2022-09-01T14:14:06;2.13;;;2.03;;
5981;SDS011;3018;48.730;9.336;2022-09-01T14:16:34;2.47;;;1.88;;
5981;SDS011;3018;48.730;9.336;2022-09-01T14:19:00;1.85;;;1.77;;
5981;SDS011;3018;48.730;9.336;2022-09-01T14:21:26;1.88;;;1.85;;
5981;SDS011;3018;48.730;9.336;2022-09-01T14:23:53;1.90;;;1.80;;
5981;SDS011;3018;48.730;9.336;2022-09-01T14:26:19;1.67;;;1.58;;
5981;SDS011;3018;48.730;9.336;2022-09-01T14:28:46;4.53;;;1.85;;
5981;SDS011;3018;48.730;9.336;2022-09-01T14:31:13;2.15;;;1.52;;
5981;SDS011;3018;48.730;9.336;2022-09-01T14:33:41;4.40;;;1.60;;
5981;SDS011;3018;48.730;9.336;2022-09-01T14:36:08;1.55;;;1.55;;
5981;SDS011;3018;48.730;9.336;2022-09-01T14:38:40;2.08;;;1.83;;
5981;SDS011;3018;48.730;9.336;2022-09-01T14:41:06;1.85;;;1.83;;
5981;SDS011;3018;48.730;9.336;2022-09-01T14:43:33;2.50;;;1.90;;
5981;SDS011;3018;48.730;9.336;2022-09-01T14:46:02;1.80;;;1.80;;
5981;SDS011;3018;48.730;9.336;2022-09-01T14:48:30;2.22;;;1.80;;
5981;SDS011;3018;48.730;9.336;2022-09-01T14:50:58;4.32;;;1.80;;
5981;SDS011;3018;48.730;9.336;2022-09-01T14:53:25;2.35;;;1.83;;
5981;SDS011;3018;48.730;9.336;2022-09-01T14:55:52;1.70;;;1.70;;
5981;SDS011;3018;48.730;9.336;2022-09-01T14:58:18;2.22;;;2.13;;
5981;SDS011;3018;48.730;9.336;2022-09-01T15:00:45;2.88;;;1.70;;
5981;SDS011;3018;48.730;9.336;2022-09-01T15:03:11;1.90;;;1.80;;
5981;SDS011;3018;48.730;9.336;2022-09-01T15:05:38;1.98;;;1.88;;
5981;SDS011;3018;48.730;9.336;2022-09-01T15:08:06;1.98;;;1.92;;
5981;SDS011;3018;48.730;9.336;2022-09-01T15:10:32;2.00;;;1.90;;
5981;SDS011;3018;48.730;9.336;2022-09-01T15:12:59;2.08;;;1.90;;
5981;SDS011;3018;48.730;9.336;2022-09-01T15:15:25;2.13;;;1.98;;
5981;SDS011;3018;48.730;9.336;2022-09-01T15:17:52;2.80;;;1.92;;
5981;SDS011;3018;48.730;9.336;2022-09-01T15:20:18;1.70;;;1.70;;
5981;SDS011;3018;48.730;9.336;2022-09-01T15:23:03;2.17;;;1.98;;